createdAt,value
2022-12-18T00:00:17.817Z,75.60
2022-12-18T00:01:21.546Z,75.27
2022-12-18T00:02:24.346Z,75.39
2022-12-18T00:03:27.073Z,75.37
2022-12-18T00:04:35.617Z,75.91
2022-12-18T00:05:37.368Z,75.58
2022-12-18T00:06:44.065Z,75.44
2022-12-18T00:07:46.266Z,76.20
2022-12-18T00:08:49.808Z,77.63
2022-12-18T00:09:51.668Z,78.89
2022-12-18T00:10:54.327Z,78.39
2022-12-18T00:13:18.701Z,76.79
2022-12-18T00:14:20.387Z,76.89
2022-12-18T00:15:23.241Z,76.97
2022-12-18T00:16:31.059Z,77.03
2022-12-18T00:17:33.976Z,76.50
2022-12-18T00:18:36.332Z,76.29
2022-12-18T00:19:42.081Z,76.94
2022-12-18T00:20:43.764Z,78.72
2022-12-18T00:21:47.852Z,79.78
2022-12-18T00:22:49.845Z,80.98
2022-12-18T00:23:56.179Z,80.70
2022-12-18T00:24:58.251Z,80.07
2022-12-18T00:26:03.531Z,78.24
2022-12-18T00:27:05.301Z,77.36
2022-12-18T00:28:10.501Z,76.86
2022-12-18T00:29:14.997Z,76.58
2022-12-18T00:30:17.751Z,75.88
2022-12-18T00:31:21.723Z,75.41
2022-12-18T00:32:24.536Z,74.99
2022-12-18T00:33:26.445Z,74.69
2022-12-18T00:34:32.174Z,75.03
2022-12-18T00:35:36.975Z,75.16
2022-12-18T00:36:42.824Z,77.22
2022-12-18T00:37:57.967Z,78.33
2022-12-18T00:39:04.518Z,79.04
2022-12-18T00:40:07.510Z,79.42
2022-12-18T00:41:13.843Z,79.83
2022-12-18T00:42:34.379Z,79.83
2022-12-18T00:43:36.439Z,79.32
2022-12-18T00:44:38.493Z,78.74
2022-12-18T00:45:47.274Z,79.24
2022-12-18T00:46:52.240Z,79.54
2022-12-18T00:47:58.549Z,79.76
2022-12-18T00:49:06.253Z,79.11
2022-12-18T00:50:10.487Z,77.73
2022-12-18T00:51:14.512Z,77.44
2022-12-18T00:52:17.326Z,76.40
2022-12-18T00:53:20.668Z,75.72
2022-12-18T00:54:23.443Z,75.38
2022-12-18T00:55:25.216Z,76.34
2022-12-18T00:56:27.949Z,76.97
2022-12-18T00:57:32.083Z,77.19
2022-12-18T00:58:34.734Z,77.08
2022-12-18T00:59:39.062Z,76.20
2022-12-18T01:00:41.869Z,76.29
2022-12-18T01:01:43.775Z,75.73
2022-12-18T01:02:46.940Z,75.05
2022-12-18T01:03:48.748Z,75.16
2022-12-18T01:04:51.392Z,75.40
2022-12-18T01:05:54.104Z,75.18
2022-12-18T01:06:55.903Z,75.25
2022-12-18T01:08:01.130Z,75.01
2022-12-18T01:09:04.858Z,74.72
2022-12-18T01:10:09.432Z,76.24
2022-12-18T01:11:13.028Z,77.27
2022-12-18T01:12:15.857Z,76.92
2022-12-18T01:13:19.777Z,77.04
2022-12-18T01:14:22.850Z,76.88
2022-12-18T01:15:24.535Z,76.45
2022-12-18T01:16:27.453Z,76.38
2022-12-18T01:17:30.553Z,75.83
2022-12-18T01:18:35.648Z,75.43
2022-12-18T01:19:37.356Z,75.07
2022-12-18T01:20:40.463Z,75.05
2022-12-18T01:21:42.152Z,76.47
2022-12-18T01:22:47.171Z,78.95
2022-12-18T01:23:52.944Z,79.09
2022-12-18T01:24:58.784Z,80.00
2022-12-18T01:26:05.594Z,80.57
2022-12-18T01:27:10.373Z,80.40
2022-12-18T01:28:12.129Z,80.48
2022-12-18T01:29:14.779Z,80.75
2022-12-18T01:30:16.451Z,81.22
2022-12-18T01:31:21.464Z,80.87
2022-12-18T01:32:23.619Z,81.13
2022-12-18T01:33:26.257Z,81.46
2022-12-18T01:34:28.103Z,81.44
2022-12-18T01:35:30.776Z,81.19
2022-12-18T01:36:34.461Z,81.31
2022-12-18T01:37:37.139Z,81.50
2022-12-18T01:38:38.779Z,81.15
2022-12-18T01:39:44.387Z,81.17
2022-12-18T01:40:47.352Z,80.69
2022-12-18T01:42:05.238Z,79.97
2022-12-18T01:43:10.245Z,78.38
2022-12-18T01:44:46.668Z,77.73
2022-12-18T01:45:49.362Z,76.46
2022-12-18T01:46:50.940Z,75.49
2022-12-18T01:47:57.021Z,75.48
2022-12-18T01:49:01.579Z,74.77
2022-12-18T01:50:08.447Z,75.05
2022-12-18T01:51:14.410Z,75.65
2022-12-18T01:52:19.063Z,75.68
2022-12-18T01:53:24.810Z,76.16
2022-12-18T01:54:30.027Z,76.65
2022-12-18T01:55:38.149Z,76.52
2022-12-18T01:56:41.280Z,76.46
2022-12-18T01:57:44.257Z,76.06
2022-12-18T01:58:54.504Z,75.64
2022-12-18T02:00:03.979Z,75.33
2022-12-18T02:01:05.989Z,74.26
2022-12-18T02:02:09.861Z,74.49
2022-12-18T02:03:12.171Z,73.84
2022-12-18T02:04:23.190Z,74.26
2022-12-18T02:05:37.375Z,76.26
2022-12-18T02:06:43.878Z,78.08
2022-12-18T02:07:58.027Z,79.93
2022-12-18T02:09:11.997Z,82.22
2022-12-18T02:10:20.573Z,82.62
2022-12-18T02:11:37.292Z,82.93
2022-12-18T02:12:45.906Z,81.96
2022-12-18T02:13:55.547Z,81.60
2022-12-18T02:15:06.932Z,79.89
2022-12-18T02:16:17.320Z,78.70
2022-12-18T02:17:22.212Z,78.08
2022-12-18T02:18:30.252Z,78.37
2022-12-18T02:19:48.678Z,77.29
2022-12-18T02:20:57.463Z,77.60
2022-12-18T02:22:13.645Z,76.65
2022-12-18T02:23:27.638Z,76.39
2022-12-18T02:24:40.962Z,76.65
2022-12-18T02:26:06.940Z,76.82
2022-12-18T02:27:10.539Z,76.27
2022-12-18T02:28:17.803Z,76.15
2022-12-18T02:29:25.123Z,75.92
2022-12-18T02:30:31.028Z,75.65
2022-12-18T02:31:36.660Z,75.64
2022-12-18T02:32:43.494Z,75.90
2022-12-18T02:33:46.904Z,77.44
2022-12-18T02:34:51.134Z,78.35
2022-12-18T02:35:55.106Z,79.91
2022-12-18T02:37:00.168Z,80.90
2022-12-18T02:38:04.094Z,81.52
2022-12-18T02:39:10.107Z,82.37
2022-12-18T02:40:14.221Z,82.97
2022-12-18T02:41:19.353Z,83.38
2022-12-18T02:42:21.144Z,83.95
2022-12-18T02:43:26.259Z,83.97
2022-12-18T02:44:28.041Z,83.83
2022-12-18T02:45:30.705Z,84.00
2022-12-18T02:46:37.600Z,83.62
2022-12-18T02:47:44.268Z,84.33
2022-12-18T02:48:47.632Z,84.09
2022-12-18T02:49:59.433Z,83.67
2022-12-18T02:51:08.079Z,83.32
2022-12-18T02:52:20.195Z,81.43
2022-12-18T02:53:29.385Z,80.74
2022-12-18T02:54:45.458Z,80.25
2022-12-18T02:55:58.422Z,79.85
2022-12-18T02:57:11.704Z,79.81
2022-12-18T02:58:17.209Z,79.67
2022-12-18T02:59:25.071Z,79.26
2022-12-18T03:00:34.431Z,79.68
2022-12-18T03:01:45.271Z,80.63
2022-12-18T03:02:55.272Z,81.21
2022-12-18T03:04:01.684Z,81.35
2022-12-18T03:05:10.584Z,81.43
2022-12-18T03:06:23.503Z,82.07
2022-12-18T03:07:35.817Z,82.44
2022-12-18T03:08:41.279Z,82.20
2022-12-18T03:09:47.718Z,82.51
2022-12-18T03:10:55.994Z,81.99
2022-12-18T03:12:22.425Z,80.47
2022-12-18T03:13:34.057Z,78.89
2022-12-18T03:14:39.057Z,78.27
2022-12-18T03:15:45.948Z,78.22
2022-12-18T03:16:52.691Z,77.61
2022-12-18T03:18:01.265Z,77.12
2022-12-18T03:19:07.027Z,77.06
2022-12-18T03:20:14.153Z,76.71
2022-12-18T03:21:18.584Z,78.21
2022-12-18T03:22:22.969Z,79.54
2022-12-18T03:23:29.839Z,80.09
2022-12-18T03:24:35.315Z,79.37
2022-12-18T03:25:40.766Z,78.89
2022-12-18T03:26:54.514Z,77.97
2022-12-18T03:28:02.527Z,78.05
2022-12-18T03:29:09.560Z,77.13
2022-12-18T03:30:14.156Z,78.25
2022-12-18T03:31:18.148Z,79.41
2022-12-18T03:32:25.196Z,79.98
2022-12-18T03:33:31.757Z,80.05
2022-12-18T03:34:38.887Z,80.72
2022-12-18T03:35:44.656Z,81.21
2022-12-18T03:36:46.579Z,81.15
2022-12-18T03:37:49.216Z,81.24
2022-12-18T03:38:52.196Z,80.44
2022-12-18T03:39:54.192Z,79.47
2022-12-18T03:41:05.105Z,78.17
2022-12-18T03:42:12.730Z,78.22
2022-12-18T03:43:22.845Z,78.35
2022-12-18T03:44:33.616Z,77.56
2022-12-18T03:45:38.324Z,76.36
2022-12-18T03:46:48.111Z,75.63
2022-12-18T03:48:01.237Z,75.14
2022-12-18T03:49:12.359Z,75.16
2022-12-18T03:50:20.157Z,75.94
2022-12-18T03:51:30.684Z,75.88
2022-12-18T03:52:39.100Z,76.00
2022-12-18T03:53:47.210Z,75.65
2022-12-18T03:54:50.189Z,74.70
2022-12-18T03:55:53.068Z,76.68
2022-12-18T03:57:02.800Z,77.86
2022-12-18T03:58:07.515Z,79.26
2022-12-18T03:59:13.488Z,78.18
2022-12-18T04:00:18.119Z,78.18
2022-12-18T04:01:26.012Z,76.92
2022-12-18T04:02:29.874Z,76.96
2022-12-18T04:03:36.381Z,77.83
2022-12-18T04:04:41.230Z,78.99
2022-12-18T04:05:45.561Z,79.38
2022-12-18T04:06:49.234Z,79.69
2022-12-18T04:07:53.243Z,79.08
2022-12-18T04:08:55.075Z,78.77
2022-12-18T04:10:03.430Z,78.28
2022-12-18T04:11:05.336Z,77.49
2022-12-18T04:12:10.252Z,77.10
2022-12-18T04:13:12.187Z,76.06
2022-12-18T04:14:18.241Z,76.44
2022-12-18T04:15:20.409Z,75.27
2022-12-18T04:16:23.004Z,77.07
2022-12-18T04:17:25.037Z,79.26
2022-12-18T04:18:30.611Z,81.34
2022-12-18T04:19:33.305Z,82.25
2022-12-18T04:20:34.911Z,82.32
2022-12-18T04:21:37.580Z,82.45
2022-12-18T04:22:39.220Z,82.12
2022-12-18T04:23:42.063Z,81.60
2022-12-18T04:24:43.936Z,81.71
2022-12-18T04:25:47.383Z,82.60
2022-12-18T04:26:48.978Z,83.29
2022-12-18T04:27:51.618Z,82.22
2022-12-18T04:28:53.331Z,80.92
2022-12-18T04:29:57.309Z,81.12
2022-12-18T04:30:59.009Z,80.33
2022-12-18T04:32:01.624Z,79.82
2022-12-18T04:33:03.617Z,79.84
2022-12-18T04:34:09.316Z,78.72
2022-12-18T04:35:12.145Z,78.27
2022-12-18T04:36:14.879Z,77.29
2022-12-18T04:37:16.585Z,76.30
2022-12-18T04:38:19.184Z,75.48
2022-12-18T04:39:20.771Z,74.76
2022-12-18T04:40:23.422Z,74.64
2022-12-18T04:41:24.994Z,74.48
2022-12-18T04:42:27.536Z,74.33
2022-12-18T04:43:29.195Z,74.23
2022-12-18T04:44:31.793Z,74.67
2022-12-18T04:45:34.864Z,74.92
2022-12-18T04:46:37.611Z,75.39
2022-12-18T04:47:39.277Z,76.85
2022-12-18T04:48:41.838Z,76.67
2022-12-18T04:49:43.455Z,77.25
2022-12-18T04:50:46.341Z,78.51
2022-12-18T04:51:49.713Z,78.56
2022-12-18T04:52:52.339Z,78.41
2022-12-18T04:53:54.902Z,77.08
2022-12-18T04:54:56.481Z,77.06
2022-12-18T04:56:06.915Z,76.04
2022-12-18T04:57:08.553Z,75.76
2022-12-18T04:58:19.819Z,74.89
2022-12-18T04:59:24.196Z,74.88
2022-12-18T05:00:27.031Z,75.79
2022-12-18T05:01:34.785Z,76.64
2022-12-18T05:02:37.988Z,76.63
2022-12-18T05:03:43.212Z,76.49
2022-12-18T05:04:46.476Z,76.78
2022-12-18T05:05:53.393Z,76.26
2022-12-18T05:06:56.076Z,75.23
2022-12-18T05:07:57.722Z,75.42
2022-12-18T05:09:01.932Z,74.77
2022-12-18T05:10:06.419Z,74.16
2022-12-18T05:11:10.717Z,73.97
2022-12-18T05:12:12.343Z,73.35
2022-12-18T05:13:15.128Z,74.07
2022-12-18T05:14:16.791Z,74.01
2022-12-18T05:15:19.458Z,74.92
2022-12-18T05:16:22.155Z,74.65
2022-12-18T05:17:25.333Z,74.84
2022-12-18T05:18:31.033Z,75.24
2022-12-18T05:19:32.713Z,74.96
2022-12-18T05:20:35.292Z,74.55
2022-12-18T05:21:39.220Z,75.01
2022-12-18T05:22:43.757Z,76.32
2022-12-18T05:23:45.498Z,78.17
2022-12-18T05:24:48.085Z,79.08
2022-12-18T05:25:52.502Z,79.41
2022-12-18T05:26:55.121Z,79.66
2022-12-18T05:27:56.725Z,80.08
2022-12-18T05:29:01.628Z,79.63
2022-12-18T05:30:04.142Z,80.55
2022-12-18T05:31:07.263Z,79.84
2022-12-18T05:32:09.128Z,79.85
2022-12-18T05:33:13.120Z,79.21
2022-12-18T05:34:15.024Z,78.48
2022-12-18T05:35:17.833Z,78.32
2022-12-18T05:36:19.548Z,77.37
2022-12-18T05:37:22.157Z,77.29
2022-12-18T05:38:25.394Z,76.23
2022-12-18T05:39:30.755Z,75.88
2022-12-18T05:40:32.393Z,75.39
2022-12-18T05:41:35.959Z,75.49
2022-12-18T05:42:37.973Z,75.28
2022-12-18T05:43:42.254Z,74.87
2022-12-18T05:44:44.961Z,75.05
2022-12-18T05:45:47.824Z,76.78
2022-12-18T05:46:52.376Z,77.15
2022-12-18T05:47:57.092Z,77.07
2022-12-18T05:49:02.190Z,76.41
2022-12-18T05:50:05.311Z,75.88
2022-12-18T05:51:11.701Z,76.01
2022-12-18T05:52:16.271Z,74.92
2022-12-18T05:53:21.357Z,74.44
2022-12-18T05:54:29.418Z,76.27
2022-12-18T05:55:34.046Z,77.45
2022-12-18T05:56:36.646Z,78.57
2022-12-18T05:57:40.475Z,79.13
2022-12-18T05:58:43.759Z,79.29
2022-12-18T05:59:45.431Z,78.97
2022-12-18T06:00:48.186Z,78.55
2022-12-18T06:01:50.262Z,78.01
2022-12-18T06:02:53.075Z,77.52
2022-12-18T06:03:55.880Z,77.38
2022-12-18T06:05:02.656Z,76.14
2022-12-18T06:06:04.673Z,75.37
2022-12-18T06:07:07.279Z,75.73
2022-12-18T06:08:09.853Z,75.32
2022-12-18T06:09:15.601Z,74.90
2022-12-18T06:10:19.232Z,76.04
2022-12-18T06:11:24.199Z,76.92
2022-12-18T06:12:26.207Z,77.19
2022-12-18T06:13:28.828Z,77.97
2022-12-18T06:14:30.622Z,77.30
2022-12-18T06:15:33.471Z,77.75
2022-12-18T06:16:35.223Z,76.94
2022-12-18T06:17:37.954Z,76.03
2022-12-18T06:18:39.663Z,75.70
2022-12-18T06:19:42.543Z,76.22
2022-12-18T06:20:45.854Z,75.58
2022-12-18T06:21:50.156Z,75.79
2022-12-18T06:22:51.828Z,75.26
2022-12-18T06:23:54.702Z,74.26
2022-12-18T06:24:56.385Z,73.96
2022-12-18T06:25:59.390Z,74.99
2022-12-18T06:27:01.025Z,74.18
2022-12-18T06:28:03.810Z,73.67
2022-12-18T06:29:07.126Z,74.18
2022-12-18T06:30:11.352Z,74.11
2022-12-18T06:31:13.317Z,73.33
2022-12-18T06:32:16.040Z,72.80
2022-12-18T06:33:18.144Z,72.43
2022-12-18T06:34:20.755Z,72.77
2022-12-18T06:35:22.520Z,72.64
2022-12-18T06:36:26.932Z,71.86
2022-12-18T06:37:29.192Z,72.06
2022-12-18T06:38:32.907Z,73.38
2022-12-18T06:39:34.576Z,74.80
2022-12-18T06:40:39.376Z,77.50
2022-12-18T06:41:40.972Z,79.23
2022-12-18T06:42:43.788Z,79.81
2022-12-18T06:43:45.771Z,79.26
2022-12-18T06:44:48.696Z,78.94
2022-12-18T06:45:53.609Z,78.00
2022-12-18T06:46:57.060Z,77.58
2022-12-18T06:47:58.820Z,76.85
2022-12-18T06:49:02.016Z,76.79
2022-12-18T06:50:08.635Z,75.74
2022-12-18T06:51:11.258Z,75.82
2022-12-18T06:52:16.906Z,75.17
2022-12-18T06:53:19.781Z,74.29
2022-12-18T06:54:21.793Z,74.54
2022-12-18T06:55:25.070Z,73.53
2022-12-18T06:56:27.704Z,72.73
2022-12-18T06:57:29.437Z,72.52
2022-12-18T06:58:32.208Z,73.68
2022-12-18T06:59:34.030Z,73.91
2022-12-18T07:00:37.206Z,74.84
2022-12-18T07:01:39.036Z,76.41
2022-12-18T07:02:41.883Z,77.64
2022-12-18T07:03:44.770Z,78.43
2022-12-18T07:04:47.733Z,78.40
2022-12-18T07:05:49.332Z,78.19
2022-12-18T07:06:51.873Z,77.60
2022-12-18T07:07:55.042Z,76.95
2022-12-18T07:09:00.114Z,75.44
2022-12-18T07:10:01.738Z,75.28
2022-12-18T07:11:06.293Z,74.70
2022-12-18T07:12:09.108Z,74.10
2022-12-18T07:13:10.792Z,73.78
2022-12-18T07:14:13.438Z,73.26
2022-12-18T07:15:20.726Z,73.58
2022-12-18T07:16:26.254Z,72.71
2022-12-18T07:17:29.332Z,73.16
2022-12-18T07:18:31.039Z,73.14
2022-12-18T07:19:36.816Z,72.65
2022-12-18T07:20:38.523Z,72.47
2022-12-18T07:21:43.851Z,72.85
2022-12-18T07:22:52.065Z,74.11
2022-12-18T07:24:02.797Z,74.02
2022-12-18T07:25:12.526Z,74.19
2022-12-18T07:26:18.079Z,75.03
2022-12-18T07:27:24.080Z,75.59
2022-12-18T07:28:28.710Z,75.76
2022-12-18T07:29:31.945Z,75.66
2022-12-18T07:30:33.837Z,75.29
2022-12-18T07:31:38.933Z,73.88
2022-12-18T07:32:40.897Z,73.63
2022-12-18T07:33:45.193Z,73.10
2022-12-18T07:34:46.853Z,72.94
2022-12-18T07:35:52.384Z,73.60
2022-12-18T07:36:54.962Z,73.23
2022-12-18T07:37:56.622Z,73.86
2022-12-18T07:39:02.222Z,75.31
2022-12-18T07:40:04.350Z,76.76
2022-12-18T07:41:10.122Z,76.47
2022-12-18T07:42:30.628Z,76.91
2022-12-18T07:43:33.264Z,75.18
2022-12-18T07:44:38.218Z,74.76
2022-12-18T07:45:40.891Z,74.00
2022-12-18T07:46:42.928Z,74.92
2022-12-18T07:47:45.568Z,74.15
2022-12-18T07:48:50.522Z,74.94
2022-12-18T07:49:53.265Z,74.01
2022-12-18T07:50:54.994Z,73.33
2022-12-18T07:51:58.477Z,74.06
2022-12-18T07:53:04.621Z,73.55
2022-12-18T07:54:08.509Z,72.92
2022-12-18T07:55:10.218Z,73.05
2022-12-18T07:56:31.464Z,73.05
2022-12-18T07:57:50.114Z,73.12
2022-12-18T07:58:54.114Z,73.23
2022-12-18T07:59:55.770Z,73.37
2022-12-18T08:01:08.715Z,73.33
2022-12-18T08:02:10.609Z,73.42
2022-12-18T08:03:15.062Z,73.41
2022-12-18T08:04:18.022Z,72.88
2022-12-18T08:05:19.689Z,72.63
2022-12-18T08:06:23.992Z,72.53
2022-12-18T08:07:27.183Z,72.32
2022-12-18T08:08:29.399Z,72.15
2022-12-18T08:09:33.386Z,72.14
2022-12-18T08:10:35.388Z,72.68
2022-12-18T08:11:40.601Z,72.75
2022-12-18T08:12:42.330Z,72.85
2022-12-18T08:13:44.885Z,73.57
2022-12-18T08:14:46.579Z,73.42
2022-12-18T08:16:00.593Z,75.99
2022-12-18T08:17:02.253Z,78.13
2022-12-18T08:18:05.972Z,78.59
2022-12-18T08:19:12.048Z,79.37
2022-12-18T08:20:15.884Z,78.52
2022-12-18T08:21:21.996Z,77.13
2022-12-18T08:22:23.742Z,76.22
2022-12-18T08:23:28.733Z,75.63
2022-12-18T08:24:33.648Z,74.41
2022-12-18T08:25:35.341Z,74.38
2022-12-18T08:27:06.658Z,73.42
2022-12-18T08:28:12.482Z,72.43
2022-12-18T08:29:17.322Z,72.40
2022-12-18T08:30:24.015Z,72.09
2022-12-18T08:31:27.544Z,73.18
2022-12-18T08:32:30.279Z,72.56
2022-12-18T08:33:32.086Z,73.09
2022-12-18T08:34:37.498Z,72.60
2022-12-18T08:35:45.485Z,72.62
2022-12-18T08:36:48.519Z,73.36
2022-12-18T08:37:51.005Z,74.47
2022-12-18T08:38:54.171Z,74.70
2022-12-18T08:39:58.301Z,74.26
2022-12-18T08:41:01.051Z,73.69
2022-12-18T08:42:24.262Z,73.09
2022-12-18T08:43:44.885Z,73.21
2022-12-18T08:44:53.550Z,74.00
2022-12-18T08:45:55.287Z,73.87
2022-12-18T08:46:58.131Z,74.41
2022-12-18T08:47:59.768Z,73.75
2022-12-18T08:49:02.460Z,73.11
2022-12-18T08:50:07.060Z,72.93
2022-12-18T08:51:10.492Z,72.48
2022-12-18T08:52:13.151Z,72.25
2022-12-18T08:53:15.248Z,72.76
2022-12-18T08:54:17.993Z,72.84
2022-12-18T08:55:24.102Z,72.54
2022-12-18T08:56:25.959Z,72.38
2022-12-18T08:57:28.675Z,72.50
2022-12-18T08:58:30.860Z,72.55
2022-12-18T08:59:36.181Z,72.25
2022-12-18T09:00:40.523Z,72.36
2022-12-18T09:01:43.198Z,71.83
2022-12-18T09:02:45.029Z,72.11
2022-12-18T09:03:47.663Z,72.52
2022-12-18T09:04:56.914Z,72.40
2022-12-18T09:06:00.444Z,72.62
2022-12-18T09:07:02.148Z,72.71
2022-12-18T09:08:04.931Z,73.33
2022-12-18T09:09:08.030Z,73.92
2022-12-18T09:10:10.025Z,73.70
2022-12-18T09:11:20.661Z,72.81
2022-12-18T09:12:23.263Z,72.79
2022-12-18T09:13:25.161Z,72.13
2022-12-18T09:14:27.707Z,72.12
2022-12-18T09:15:29.293Z,71.76
2022-12-18T09:16:33.539Z,72.60
2022-12-18T09:17:35.674Z,72.64
2022-12-18T09:18:38.709Z,72.18
2022-12-18T09:19:41.589Z,72.23
2022-12-18T09:20:43.375Z,72.64
2022-12-18T09:21:48.285Z,73.27
2022-12-18T09:22:50.221Z,73.80
2022-12-18T09:23:54.221Z,72.95
2022-12-18T09:24:58.431Z,72.49
2022-12-18T09:26:02.614Z,72.63
2022-12-18T09:27:07.699Z,72.65
2022-12-18T09:28:20.065Z,72.46
2022-12-18T09:29:23.123Z,72.34
2022-12-18T09:30:24.761Z,71.54
2022-12-18T09:31:29.819Z,70.88
2022-12-18T09:32:32.388Z,71.37
2022-12-18T09:33:37.905Z,71.34
2022-12-18T09:34:39.995Z,71.79
2022-12-18T09:35:44.733Z,71.84
2022-12-18T09:36:47.709Z,71.99
2022-12-18T09:37:49.726Z,71.98
2022-12-18T09:38:52.450Z,72.64
2022-12-18T09:39:55.474Z,73.45
2022-12-18T09:41:02.409Z,73.64
2022-12-18T09:42:07.548Z,74.87
2022-12-18T09:43:19.736Z,76.33
2022-12-18T09:44:27.115Z,76.15
2022-12-18T09:45:33.172Z,75.26
2022-12-18T09:46:42.574Z,74.47
2022-12-18T09:47:47.989Z,74.17
2022-12-18T09:48:53.490Z,73.96
2022-12-18T09:50:00.187Z,73.30
2022-12-18T09:51:10.424Z,72.65
2022-12-18T09:52:19.628Z,72.97
2022-12-18T09:53:29.385Z,72.17
2022-12-18T09:54:37.442Z,71.89
2022-12-18T09:55:43.850Z,72.78
2022-12-18T09:56:45.934Z,72.35
2022-12-18T09:57:54.330Z,71.45
2022-12-18T09:58:59.468Z,72.26
2022-12-18T10:00:19.318Z,71.33
2022-12-18T10:01:24.313Z,71.37
2022-12-18T10:02:32.095Z,71.05
2022-12-18T10:03:33.775Z,70.74
2022-12-18T10:04:36.319Z,70.37
2022-12-18T10:05:45.327Z,70.58
2022-12-18T10:06:56.428Z,69.73
2022-12-18T10:08:08.109Z,67.87
2022-12-18T10:09:21.364Z,68.09
2022-12-18T10:10:33.008Z,68.26
2022-12-18T10:11:45.584Z,65.74
2022-12-18T10:13:04.293Z,63.54
2022-12-18T10:14:16.697Z,61.18
2022-12-18T10:15:30.304Z,58.64
2022-12-18T10:16:41.834Z,57.46
2022-12-18T10:17:52.136Z,55.56
2022-12-18T10:19:12.145Z,54.07
2022-12-18T10:20:19.484Z,53.91
2022-12-18T10:21:28.949Z,53.12
2022-12-18T10:22:45.357Z,52.83
2022-12-18T10:23:57.550Z,53.34
2022-12-18T10:25:06.596Z,54.56
2022-12-18T10:26:23.293Z,54.99
2022-12-18T10:27:31.535Z,55.79
2022-12-18T10:28:38.480Z,57.09
2022-12-18T10:29:41.535Z,57.74
2022-12-18T10:30:45.611Z,59.22
2022-12-18T10:31:49.917Z,60.70
2022-12-18T10:32:53.237Z,61.29
2022-12-18T10:33:56.578Z,61.82
2022-12-18T10:35:01.120Z,62.89
2022-12-18T10:36:04.160Z,63.07
2022-12-18T10:37:15.713Z,63.61
2022-12-18T10:38:28.172Z,63.04
2022-12-18T10:39:29.766Z,64.22
2022-12-18T10:40:32.740Z,63.90
2022-12-18T10:41:35.663Z,64.20
2022-12-18T10:42:37.276Z,64.69
2022-12-18T10:43:42.424Z,65.14
2022-12-18T10:44:44.027Z,65.30
2022-12-18T10:46:04.148Z,64.85
2022-12-18T10:47:13.087Z,65.00
2022-12-18T10:48:22.327Z,64.99
2022-12-18T10:49:27.689Z,64.84
2022-12-18T10:51:08.657Z,65.11
2022-12-18T10:52:09.152Z,64.58
2022-12-18T10:53:21.216Z,65.58
2022-12-18T10:54:25.774Z,65.06
2022-12-18T10:55:33.522Z,64.82
2022-12-18T10:56:38.603Z,65.37
2022-12-18T10:57:42.585Z,66.33
2022-12-18T10:58:58.664Z,66.74
2022-12-18T11:00:22.773Z,65.73
2022-12-18T11:01:25.412Z,65.62
2022-12-18T11:02:34.283Z,65.41
2022-12-18T11:03:38.985Z,65.70
2022-12-18T11:04:53.470Z,66.56
2022-12-18T11:06:03.307Z,66.75
2022-12-18T11:07:07.789Z,66.15
2022-12-18T11:08:26.015Z,66.36
2022-12-18T11:09:29.828Z,65.81
2022-12-18T11:10:33.488Z,66.97
2022-12-18T11:11:36.698Z,66.24
2022-12-18T11:12:38.321Z,66.16
2022-12-18T11:13:41.554Z,65.89
2022-12-18T11:14:48.150Z,65.44
2022-12-18T11:15:51.712Z,65.84
2022-12-18T11:17:26.206Z,66.53
2022-12-18T11:18:21.817Z,66.93
2022-12-18T11:19:33.763Z,66.40
2022-12-18T11:20:36.955Z,65.37
2022-12-18T11:21:43.419Z,65.58
2022-12-18T11:22:57.357Z,65.35
2022-12-18T11:24:00.154Z,65.21
2022-12-18T11:26:37.180Z,64.36
2022-12-18T11:27:39.326Z,65.41
2022-12-18T11:28:45.588Z,65.67
2022-12-18T11:29:52.486Z,64.79
2022-12-18T11:31:13.781Z,64.29
2022-12-18T11:32:31.188Z,65.05
2022-12-18T11:33:33.992Z,65.61
2022-12-18T11:34:37.114Z,65.12
2022-12-18T11:35:45.249Z,64.76
2022-12-18T11:36:49.763Z,64.73
2022-12-18T11:37:58.566Z,64.89
2022-12-18T11:39:07.891Z,65.54
2022-12-18T11:40:15.555Z,64.31
2022-12-18T11:41:45.880Z,62.15
2022-12-18T11:42:51.506Z,61.82
2022-12-18T11:43:59.084Z,60.37
2022-12-18T11:45:24.527Z,59.06
2022-12-18T11:46:36.667Z,56.07
2022-12-18T11:47:45.186Z,54.75
2022-12-18T11:48:54.198Z,54.63
2022-12-18T11:50:00.467Z,54.62
2022-12-18T11:51:07.554Z,54.73
2022-12-18T11:52:16.851Z,54.18
2022-12-18T11:53:20.328Z,55.18
2022-12-18T11:54:22.008Z,55.89
2022-12-18T11:55:33.104Z,55.82
2022-12-18T11:56:38.460Z,56.35
2022-12-18T11:57:47.345Z,55.32
2022-12-18T11:58:57.038Z,54.72
2022-12-18T12:00:11.069Z,52.68
2022-12-18T12:01:25.002Z,51.57
2022-12-18T12:02:43.857Z,50.99
2022-12-18T12:04:14.523Z,50.46
2022-12-18T12:05:37.466Z,50.70
2022-12-18T12:06:48.580Z,50.77
2022-12-18T12:07:56.301Z,49.83
2022-12-18T12:09:09.781Z,49.51
2022-12-18T12:10:27.964Z,49.75
2022-12-18T12:11:40.486Z,50.14
2022-12-18T12:12:58.104Z,49.28
2022-12-18T12:14:18.288Z,48.49
2022-12-18T12:15:36.836Z,46.68
2022-12-18T12:16:48.433Z,46.42
2022-12-18T12:18:00.091Z,47.43
2022-12-18T12:19:21.435Z,47.83
2022-12-18T12:20:36.262Z,48.07
2022-12-18T12:21:41.472Z,48.25
2022-12-18T12:22:54.849Z,47.96
2022-12-18T12:24:04.476Z,48.73
2022-12-18T12:25:20.058Z,48.69
2022-12-18T12:26:32.315Z,49.05
2022-12-18T12:27:46.309Z,48.61
2022-12-18T12:29:03.919Z,47.46
2022-12-18T12:30:10.402Z,46.34
2022-12-18T12:31:21.006Z,45.64
2022-12-18T12:32:36.864Z,44.95
2022-12-18T12:33:49.402Z,43.97
2022-12-18T12:35:09.609Z,44.32
2022-12-18T12:36:21.597Z,44.36
2022-12-18T12:37:36.035Z,44.83
2022-12-18T12:38:48.298Z,44.01
2022-12-18T12:39:56.471Z,43.99
2022-12-18T12:41:03.127Z,44.98
2022-12-18T12:42:32.136Z,46.06
2022-12-18T12:43:46.119Z,47.10
2022-12-18T12:44:56.245Z,48.36
2022-12-18T12:46:02.287Z,50.21
2022-12-18T12:47:16.965Z,50.97
2022-12-18T12:48:30.030Z,51.56
2022-12-18T12:49:40.394Z,53.47
2022-12-18T12:50:44.011Z,54.02
2022-12-18T12:51:49.205Z,53.88
2022-12-18T12:52:55.203Z,55.81
2022-12-18T12:54:00.095Z,55.23
2022-12-18T12:55:07.973Z,55.78
2022-12-18T12:56:16.282Z,56.51
2022-12-18T12:57:23.733Z,58.38
2022-12-18T12:58:35.615Z,59.73
2022-12-18T12:59:48.984Z,60.04
2022-12-18T13:00:59.972Z,60.23
2022-12-18T13:02:13.415Z,60.38
2022-12-18T13:03:32.011Z,62.19
2022-12-18T13:04:39.116Z,62.59
2022-12-18T13:05:46.665Z,62.49
2022-12-18T13:06:55.601Z,63.56
2022-12-18T13:08:02.787Z,64.44
2022-12-18T13:09:06.068Z,66.38
2022-12-18T13:10:17.554Z,66.02
2022-12-18T13:11:54.845Z,65.87
2022-12-18T13:13:03.334Z,66.53
2022-12-18T13:14:06.258Z,65.82
2022-12-18T13:15:23.432Z,66.07
2022-12-18T13:16:28.223Z,66.28
2022-12-18T13:17:32.196Z,66.03
2022-12-18T13:18:35.877Z,66.70
2022-12-18T13:19:37.522Z,67.01
2022-12-18T13:20:42.581Z,66.83
2022-12-18T13:21:55.389Z,66.76
2022-12-18T13:22:56.953Z,66.60
2022-12-18T13:24:17.781Z,66.52
2022-12-18T13:25:35.698Z,66.18
2022-12-18T13:26:38.554Z,66.81
2022-12-18T13:28:04.437Z,68.17
2022-12-18T13:29:07.421Z,67.80
2022-12-18T13:30:43.335Z,67.47
2022-12-18T13:32:22.810Z,67.88
2022-12-18T13:34:25.822Z,68.41
2022-12-18T13:35:43.646Z,69.19
2022-12-18T13:36:49.514Z,70.66
2022-12-18T13:37:53.530Z,70.32
2022-12-18T13:39:30.322Z,69.18
2022-12-18T13:40:59.056Z,68.83
2022-12-18T13:42:56.781Z,67.50
2022-12-18T13:44:14.024Z,67.01
2022-12-18T13:45:43.746Z,66.55
2022-12-18T13:46:50.641Z,66.57
2022-12-18T13:47:52.587Z,66.91
2022-12-18T13:49:02.052Z,67.62
2022-12-18T13:50:11.402Z,67.57
2022-12-18T13:51:19.394Z,67.66
2022-12-18T13:52:24.590Z,66.85
2022-12-18T13:53:30.927Z,66.53
2022-12-18T13:54:37.901Z,65.88
2022-12-18T13:55:39.521Z,66.26
2022-12-18T13:56:47.201Z,66.96
2022-12-18T13:57:48.771Z,67.44
2022-12-18T13:59:14.021Z,67.32
2022-12-18T14:00:25.868Z,67.38
2022-12-18T14:01:28.990Z,67.57
2022-12-18T14:02:32.509Z,66.88
2022-12-18T14:03:34.169Z,66.26
2022-12-18T14:04:38.974Z,65.88
2022-12-18T14:05:43.353Z,66.44
2022-12-18T14:06:48.325Z,65.88
2022-12-18T14:07:51.559Z,65.34
2022-12-18T14:08:54.937Z,65.47
2022-12-18T14:11:26.496Z,65.23
2022-12-18T14:12:50.329Z,64.81
2022-12-18T14:13:54.124Z,64.60
2022-12-18T14:14:56.818Z,64.50
2022-12-18T14:16:03.835Z,65.80
2022-12-18T14:17:10.776Z,66.31
2022-12-18T14:18:25.114Z,66.62
2022-12-18T14:19:27.863Z,67.59
2022-12-18T14:20:33.551Z,67.32
2022-12-18T14:21:36.304Z,67.48